sensor_id;sensor_type;location;lat;lon;timestamp;P1;durP1;ratioP1;P2;durP2;ratioP2
49488;SDS011;35382;51.484;11.476;2023-07-30T00:01:13;10.07;;;4.00;;
49488;SDS011;35382;51.484;11.476;2023-07-30T00:03:38;8.02;;;4.20;;
49488;SDS011;35382;51.484;11.476;2023-07-30T00:06:04;6.22;;;3.90;;
49488;SDS011;35382;51.484;11.476;2023-07-30T00:08:29;8.90;;;3.75;;
49488;SDS011;35382;51.484;11.476;2023-07-30T00:10:58;9.63;;;4.30;;
49488;SDS011;35382;51.484;11.476;2023-07-30T00:13:23;8.48;;;4.18;;
49488;SDS011;35382;51.484;11.476;2023-07-30T00:15:49;8.23;;;3.75;;
49488;SDS011;35382;51.484;11.476;2023-07-30T00:18:15;7.57;;;3.92;;
49488;SDS011;35382;51.484;11.476;2023-07-30T00:20:41;7.83;;;3.60;;
49488;SDS011;35382;51.484;11.476;2023-07-30T00:23:07;8.73;;;4.30;;
49488;SDS011;35382;51.484;11.476;2023-07-30T00:25:32;5.72;;;3.95;;
49488;SDS011;35382;51.484;11.476;2023-07-30T00:27:57;6.70;;;3.80;;
49488;SDS011;35382;51.484;11.476;2023-07-30T00:30:23;7.70;;;3.75;;
49488;SDS011;35382;51.484;11.476;2023-07-30T00:32:49;9.18;;;4.00;;
49488;SDS011;35382;51.484;11.476;2023-07-30T00:35:14;8.85;;;4.18;;
49488;SDS011;35382;51.484;11.476;2023-07-30T00:37:40;6.65;;;4.00;;
49488;SDS011;35382;51.484;11.476;2023-07-30T00:40:06;5.22;;;3.72;;
49488;SDS011;35382;51.484;11.476;2023-07-30T00:42:32;7.07;;;4.30;;
49488;SDS011;35382;51.484;11.476;2023-07-30T00:44:57;6.55;;;4.05;;
49488;SDS011;35382;51.484;11.476;2023-07-30T00:47:23;10.60;;;4.25;;
49488;SDS011;35382;51.484;11.476;2023-07-30T00:49:49;6.88;;;4.18;;
49488;SDS011;35382;51.484;11.476;2023-07-30T00:52:18;8.80;;;3.97;;
49488;SDS011;35382;51.484;11.476;2023-07-30T00:54:45;9.63;;;4.00;;
49488;SDS011;35382;51.484;11.476;2023-07-30T00:57:13;5.57;;;3.80;;
49488;SDS011;35382;51.484;11.476;2023-07-30T01:02:05;6.50;;;4.00;;
49488;SDS011;35382;51.484;11.476;2023-07-30T01:04:31;6.35;;;3.70;;
49488;SDS011;35382;51.484;11.476;2023-07-30T01:06:57;9.03;;;3.57;;
49488;SDS011;35382;51.484;11.476;2023-07-30T01:09:22;8.90;;;3.70;;
49488;SDS011;35382;51.484;11.476;2023-07-30T01:11:48;9.35;;;3.38;;
49488;SDS011;35382;51.484;11.476;2023-07-30T01:14:14;6.60;;;4.13;;
49488;SDS011;35382;51.484;11.476;2023-07-30T01:16:41;6.00;;;3.63;;
49488;SDS011;35382;51.484;11.476;2023-07-30T01:19:07;7.00;;;3.85;;
49488;SDS011;35382;51.484;11.476;2023-07-30T01:21:33;7.70;;;3.72;;
49488;SDS011;35382;51.484;11.476;2023-07-30T01:24:02;6.50;;;3.60;;
49488;SDS011;35382;51.484;11.476;2023-07-30T01:26:30;8.13;;;3.75;;
49488;SDS011;35382;51.484;11.476;2023-07-30T01:29:00;7.30;;;3.90;;
49488;SDS011;35382;51.484;11.476;2023-07-30T01:31:28;9.93;;;3.50;;
49488;SDS011;35382;51.484;11.476;2023-07-30T01:33:56;8.07;;;3.55;;
49488;SDS011;35382;51.484;11.476;2023-07-30T01:36:24;9.52;;;3.95;;
49488;SDS011;35382;51.484;11.476;2023-07-30T01:38:50;6.37;;;3.20;;
49488;SDS011;35382;51.484;11.476;2023-07-30T01:41:17;10.52;;;3.80;;
49488;SDS011;35382;51.484;11.476;2023-07-30T01:43:43;7.38;;;4.03;;
49488;SDS011;35382;51.484;11.476;2023-07-30T01:46:08;9.70;;;4.03;;
49488;SDS011;35382;51.484;11.476;2023-07-30T01:48:34;6.82;;;3.95;;
49488;SDS011;35382;51.484;11.476;2023-07-30T01:50:59;8.43;;;4.25;;
49488;SDS011;35382;51.484;11.476;2023-07-30T01:53:25;10.65;;;4.18;;
49488;SDS011;35382;51.484;11.476;2023-07-30T01:55:50;8.05;;;3.25;;
49488;SDS011;35382;51.484;11.476;2023-07-30T01:58:15;7.97;;;3.85;;
49488;SDS011;35382;51.484;11.476;2023-07-30T02:00:41;9.48;;;3.80;;
49488;SDS011;35382;51.484;11.476;2023-07-30T02:03:06;9.32;;;3.90;;
49488;SDS011;35382;51.484;11.476;2023-07-30T02:05:32;9.23;;;4.22;;
49488;SDS011;35382;51.484;11.476;2023-07-30T02:07:57;11.40;;;3.83;;
49488;SDS011;35382;51.484;11.476;2023-07-30T02:10:26;11.48;;;4.50;;
49488;SDS011;35382;51.484;11.476;2023-07-30T02:12:51;10.32;;;3.92;;
49488;SDS011;35382;51.484;11.476;2023-07-30T02:15:17;12.70;;;3.70;;
49488;SDS011;35382;51.484;11.476;2023-07-30T02:17:42;9.68;;;3.70;;
49488;SDS011;35382;51.484;11.476;2023-07-30T02:20:08;11.25;;;4.63;;
49488;SDS011;35382;51.484;11.476;2023-07-30T02:22:34;11.80;;;4.97;;
49488;SDS011;35382;51.484;11.476;2023-07-30T02:24:59;10.50;;;5.25;;
49488;SDS011;35382;51.484;11.476;2023-07-30T02:27:25;9.80;;;4.28;;
49488;SDS011;35382;51.484;11.476;2023-07-30T02:29:50;8.50;;;4.13;;
49488;SDS011;35382;51.484;11.476;2023-07-30T02:32:15;10.07;;;4.18;;
49488;SDS011;35382;51.484;11.476;2023-07-30T02:34:41;13.75;;;4.38;;
49488;SDS011;35382;51.484;11.476;2023-07-30T02:37:09;14.00;;;4.07;;
49488;SDS011;35382;51.484;11.476;2023-07-30T02:39:35;11.05;;;4.30;;
49488;SDS011;35382;51.484;11.476;2023-07-30T02:42:01;9.23;;;4.30;;
49488;SDS011;35382;51.484;11.476;2023-07-30T02:44:26;10.25;;;4.68;;
49488;SDS011;35382;51.484;11.476;2023-07-30T02:46:52;11.43;;;3.70;;
49488;SDS011;35382;51.484;11.476;2023-07-30T02:49:17;11.32;;;4.70;;
49488;SDS011;35382;51.484;11.476;2023-07-30T02:51:42;9.85;;;4.20;;
49488;SDS011;35382;51.484;11.476;2023-07-30T02:54:08;10.55;;;4.70;;
49488;SDS011;35382;51.484;11.476;2023-07-30T02:56:34;9.77;;;4.18;;
49488;SDS011;35382;51.484;11.476;2023-07-30T02:58:59;11.35;;;3.95;;
49488;SDS011;35382;51.484;11.476;2023-07-30T03:01:25;10.13;;;4.22;;
49488;SDS011;35382;51.484;11.476;2023-07-30T03:03:50;10.10;;;5.20;;
49488;SDS011;35382;51.484;11.476;2023-07-30T03:06:15;10.15;;;4.40;;
49488;SDS011;35382;51.484;11.476;2023-07-30T03:08:41;11.57;;;5.05;;
49488;SDS011;35382;51.484;11.476;2023-07-30T03:11:06;15.38;;;5.03;;
49488;SDS011;35382;51.484;11.476;2023-07-30T03:13:32;11.70;;;5.82;;
49488;SDS011;35382;51.484;11.476;2023-07-30T03:15:57;12.30;;;5.50;;
49488;SDS011;35382;51.484;11.476;2023-07-30T03:18:22;16.83;;;5.28;;
49488;SDS011;35382;51.484;11.476;2023-07-30T03:20:48;12.38;;;5.45;;
49488;SDS011;35382;51.484;11.476;2023-07-30T03:23:13;11.45;;;5.00;;
49488;SDS011;35382;51.484;11.476;2023-07-30T03:25:39;10.60;;;4.80;;
49488;SDS011;35382;51.484;11.476;2023-07-30T03:28:04;13.27;;;5.10;;
49488;SDS011;35382;51.484;11.476;2023-07-30T03:30:30;13.30;;;5.32;;
49488;SDS011;35382;51.484;11.476;2023-07-30T03:32:55;12.45;;;5.20;;
49488;SDS011;35382;51.484;11.476;2023-07-30T03:35:21;11.23;;;4.95;;
49488;SDS011;35382;51.484;11.476;2023-07-30T03:37:47;11.52;;;5.07;;
49488;SDS011;35382;51.484;11.476;2023-07-30T03:40:13;13.57;;;5.40;;
49488;SDS011;35382;51.484;11.476;2023-07-30T03:42:38;10.10;;;4.43;;
49488;SDS011;35382;51.484;11.476;2023-07-30T03:45:04;10.13;;;5.30;;
49488;SDS011;35382;51.484;11.476;2023-07-30T03:47:30;16.83;;;5.75;;
49488;SDS011;35382;51.484;11.476;2023-07-30T03:49:55;11.95;;;5.72;;
49488;SDS011;35382;51.484;11.476;2023-07-30T03:52:21;14.65;;;5.65;;
49488;SDS011;35382;51.484;11.476;2023-07-30T03:54:46;12.43;;;5.32;;
49488;SDS011;35382;51.484;11.476;2023-07-30T03:57:11;12.43;;;4.65;;
49488;SDS011;35382;51.484;11.476;2023-07-30T03:59:37;10.50;;;5.07;;
49488;SDS011;35382;51.484;11.476;2023-07-30T04:02:03;12.73;;;4.85;;
49488;SDS011;35382;51.484;11.476;2023-07-30T04:04:29;11.88;;;4.97;;
49488;SDS011;35382;51.484;11.476;2023-07-30T04:06:54;11.52;;;4.75;;
49488;SDS011;35382;51.484;11.476;2023-07-30T04:09:19;8.40;;;4.97;;
49488;SDS011;35382;51.484;11.476;2023-07-30T04:11:45;12.60;;;5.75;;
49488;SDS011;35382;51.484;11.476;2023-07-30T04:14:10;9.77;;;5.20;;
49488;SDS011;35382;51.484;11.476;2023-07-30T04:16:35;10.00;;;5.00;;
49488;SDS011;35382;51.484;11.476;2023-07-30T04:19:03;9.48;;;4.80;;
49488;SDS011;35382;51.484;11.476;2023-07-30T04:21:29;8.13;;;4.10;;
49488;SDS011;35382;51.484;11.476;2023-07-30T04:23:54;9.50;;;4.60;;
49488;SDS011;35382;51.484;11.476;2023-07-30T04:26:20;10.10;;;5.45;;
49488;SDS011;35382;51.484;11.476;2023-07-30T04:28:45;9.68;;;4.95;;
49488;SDS011;35382;51.484;11.476;2023-07-30T04:31:11;11.13;;;4.95;;
49488;SDS011;35382;51.484;11.476;2023-07-30T04:33:36;8.73;;;4.50;;
49488;SDS011;35382;51.484;11.476;2023-07-30T04:36:02;10.65;;;4.60;;
49488;SDS011;35382;51.484;11.476;2023-07-30T04:38:27;7.78;;;5.60;;
49488;SDS011;35382;51.484;11.476;2023-07-30T04:40:53;9.05;;;5.68;;
49488;SDS011;35382;51.484;11.476;2023-07-30T04:43:19;11.85;;;5.30;;
49488;SDS011;35382;51.484;11.476;2023-07-30T04:45:50;7.78;;;4.80;;
49488;SDS011;35382;51.484;11.476;2023-07-30T04:48:15;6.78;;;4.88;;
49488;SDS011;35382;51.484;11.476;2023-07-30T04:50:41;6.28;;;4.35;;
49488;SDS011;35382;51.484;11.476;2023-07-30T04:53:06;7.10;;;3.97;;
49488;SDS011;35382;51.484;11.476;2023-07-30T04:55:32;6.30;;;4.10;;
49488;SDS011;35382;51.484;11.476;2023-07-30T04:57:57;7.57;;;3.90;;
49488;SDS011;35382;51.484;11.476;2023-07-30T05:00:23;6.82;;;3.95;;
49488;SDS011;35382;51.484;11.476;2023-07-30T05:02:48;5.65;;;3.92;;
49488;SDS011;35382;51.484;11.476;2023-07-30T05:05:14;6.25;;;4.20;;
49488;SDS011;35382;51.484;11.476;2023-07-30T05:07:39;5.82;;;4.13;;
49488;SDS011;35382;51.484;11.476;2023-07-30T05:10:05;6.20;;;3.90;;
49488;SDS011;35382;51.484;11.476;2023-07-30T05:12:31;6.53;;;4.10;;
49488;SDS011;35382;51.484;11.476;2023-07-30T05:14:56;6.77;;;4.03;;
49488;SDS011;35382;51.484;11.476;2023-07-30T05:17:22;5.85;;;3.58;;
49488;SDS011;35382;51.484;11.476;2023-07-30T05:19:47;5.80;;;3.70;;
49488;SDS011;35382;51.484;11.476;2023-07-30T05:22:12;5.10;;;3.33;;
49488;SDS011;35382;51.484;11.476;2023-07-30T05:24:38;6.37;;;3.43;;
49488;SDS011;35382;51.484;11.476;2023-07-30T05:27:03;5.13;;;3.43;;
49488;SDS011;35382;51.484;11.476;2023-07-30T05:29:29;5.17;;;3.20;;
49488;SDS011;35382;51.484;11.476;2023-07-30T05:31:54;5.23;;;3.00;;
49488;SDS011;35382;51.484;11.476;2023-07-30T05:34:21;6.35;;;3.00;;
49488;SDS011;35382;51.484;11.476;2023-07-30T05:36:46;6.60;;;3.40;;
49488;SDS011;35382;51.484;11.476;2023-07-30T05:39:12;4.90;;;3.33;;
49488;SDS011;35382;51.484;11.476;2023-07-30T05:41:37;6.07;;;3.17;;
49488;SDS011;35382;51.484;11.476;2023-07-30T05:44:02;6.50;;;3.63;;
49488;SDS011;35382;51.484;11.476;2023-07-30T05:46:28;6.33;;;3.77;;
49488;SDS011;35382;51.484;11.476;2023-07-30T05:48:53;6.03;;;3.70;;
49488;SDS011;35382;51.484;11.476;2023-07-30T05:51:19;8.33;;;4.07;;
49488;SDS011;35382;51.484;11.476;2023-07-30T05:53:44;5.47;;;3.87;;
49488;SDS011;35382;51.484;11.476;2023-07-30T05:56:09;5.50;;;4.00;;
49488;SDS011;35382;51.484;11.476;2023-07-30T05:58:35;6.73;;;3.80;;
49488;SDS011;35382;51.484;11.476;2023-07-30T06:01:00;6.23;;;4.20;;
49488;SDS011;35382;51.484;11.476;2023-07-30T06:03:26;4.53;;;3.60;;
49488;SDS011;35382;51.484;11.476;2023-07-30T06:05:51;8.17;;;4.40;;
49488;SDS011;35382;51.484;11.476;2023-07-30T06:08:16;5.70;;;4.00;;
49488;SDS011;35382;51.484;11.476;2023-07-30T06:10:42;6.33;;;3.70;;
49488;SDS011;35382;51.484;11.476;2023-07-30T06:13:07;6.33;;;3.77;;
49488;SDS011;35382;51.484;11.476;2023-07-30T06:15:33;7.90;;;4.10;;
49488;SDS011;35382;51.484;11.476;2023-07-30T06:17:58;5.77;;;3.90;;
49488;SDS011;35382;51.484;11.476;2023-07-30T06:22:50;6.17;;;3.90;;
49488;SDS011;35382;51.484;11.476;2023-07-30T06:25:16;5.87;;;4.50;;
49488;SDS011;35382;51.484;11.476;2023-07-30T06:27:41;7.07;;;5.00;;
49488;SDS011;35382;51.484;11.476;2023-07-30T06:30:07;7.50;;;4.37;;
49488;SDS011;35382;51.484;11.476;2023-07-30T06:32:32;6.97;;;4.03;;
49488;SDS011;35382;51.484;11.476;2023-07-30T06:34:58;5.60;;;3.60;;
49488;SDS011;35382;51.484;11.476;2023-07-30T06:37:23;5.80;;;4.03;;
49488;SDS011;35382;51.484;11.476;2023-07-30T06:39:48;7.03;;;4.20;;
49488;SDS011;35382;51.484;11.476;2023-07-30T06:42:14;8.50;;;4.37;;
49488;SDS011;35382;51.484;11.476;2023-07-30T06:44:39;7.70;;;4.50;;
49488;SDS011;35382;51.484;11.476;2023-07-30T06:47:05;7.47;;;5.10;;
49488;SDS011;35382;51.484;11.476;2023-07-30T06:49:30;6.53;;;4.80;;
49488;SDS011;35382;51.484;11.476;2023-07-30T06:51:55;6.70;;;4.70;;
49488;SDS011;35382;51.484;11.476;2023-07-30T06:54:21;11.43;;;4.90;;
49488;SDS011;35382;51.484;11.476;2023-07-30T06:56:47;9.23;;;5.35;;
49488;SDS011;35382;51.484;11.476;2023-07-30T06:59:13;6.80;;;4.83;;
49488;SDS011;35382;51.484;11.476;2023-07-30T07:01:38;6.73;;;5.03;;
49488;SDS011;35382;51.484;11.476;2023-07-30T07:04:04;10.80;;;5.43;;
49488;SDS011;35382;51.484;11.476;2023-07-30T07:06:29;8.17;;;4.80;;
49488;SDS011;35382;51.484;11.476;2023-07-30T07:08:54;8.37;;;5.47;;
49488;SDS011;35382;51.484;11.476;2023-07-30T07:11:20;11.00;;;5.40;;
49488;SDS011;35382;51.484;11.476;2023-07-30T07:13:45;6.43;;;5.23;;
49488;SDS011;35382;51.484;11.476;2023-07-30T07:16:11;8.33;;;5.07;;
49488;SDS011;35382;51.484;11.476;2023-07-30T07:18:36;8.73;;;5.40;;
49488;SDS011;35382;51.484;11.476;2023-07-30T07:21:01;7.83;;;5.67;;
49488;SDS011;35382;51.484;11.476;2023-07-30T07:23:27;7.87;;;5.33;;
49488;SDS011;35382;51.484;11.476;2023-07-30T07:25:52;7.80;;;5.40;;
49488;SDS011;35382;51.484;11.476;2023-07-30T07:28:18;8.90;;;5.53;;
49488;SDS011;35382;51.484;11.476;2023-07-30T07:30:43;9.03;;;4.63;;
49488;SDS011;35382;51.484;11.476;2023-07-30T07:33:08;7.23;;;4.07;;
49488;SDS011;35382;51.484;11.476;2023-07-30T07:35:34;6.93;;;3.53;;
49488;SDS011;35382;51.484;11.476;2023-07-30T07:37:59;6.73;;;3.73;;
49488;SDS011;35382;51.484;11.476;2023-07-30T07:40:25;7.10;;;3.47;;
49488;SDS011;35382;51.484;11.476;2023-07-30T07:42:50;9.50;;;2.87;;
49488;SDS011;35382;51.484;11.476;2023-07-30T07:45:16;9.40;;;3.03;;
49488;SDS011;35382;51.484;11.476;2023-07-30T07:47:41;7.07;;;4.03;;
49488;SDS011;35382;51.484;11.476;2023-07-30T07:50:07;7.40;;;3.03;;
49488;SDS011;35382;51.484;11.476;2023-07-30T07:52:32;5.67;;;2.70;;
49488;SDS011;35382;51.484;11.476;2023-07-30T07:54:58;7.17;;;2.60;;
49488;SDS011;35382;51.484;11.476;2023-07-30T07:57:23;3.07;;;1.80;;
49488;SDS011;35382;51.484;11.476;2023-07-30T07:59:49;6.80;;;2.60;;
49488;SDS011;35382;51.484;11.476;2023-07-30T08:02:14;5.93;;;2.70;;
49488;SDS011;35382;51.484;11.476;2023-07-30T08:04:40;4.63;;;2.20;;
49488;SDS011;35382;51.484;11.476;2023-07-30T08:07:05;7.03;;;1.97;;
49488;SDS011;35382;51.484;11.476;2023-07-30T08:09:31;6.73;;;2.30;;
49488;SDS011;35382;51.484;11.476;2023-07-30T08:11:56;4.13;;;2.10;;
49488;SDS011;35382;51.484;11.476;2023-07-30T08:14:22;6.43;;;2.23;;
49488;SDS011;35382;51.484;11.476;2023-07-30T08:16:47;4.13;;;2.10;;
49488;SDS011;35382;51.484;11.476;2023-07-30T08:19:12;3.13;;;1.70;;
49488;SDS011;35382;51.484;11.476;2023-07-30T08:21:38;5.07;;;2.40;;
49488;SDS011;35382;51.484;11.476;2023-07-30T08:24:03;5.60;;;2.60;;
49488;SDS011;35382;51.484;11.476;2023-07-30T08:26:29;5.33;;;2.70;;
49488;SDS011;35382;51.484;11.476;2023-07-30T08:28:55;5.37;;;2.23;;
49488;SDS011;35382;51.484;11.476;2023-07-30T08:31:20;6.10;;;2.30;;
49488;SDS011;35382;51.484;11.476;2023-07-30T08:33:46;8.90;;;2.10;;
49488;SDS011;35382;51.484;11.476;2023-07-30T08:36:11;5.67;;;2.23;;
49488;SDS011;35382;51.484;11.476;2023-07-30T08:38:38;3.67;;;2.17;;
49488;SDS011;35382;51.484;11.476;2023-07-30T08:41:04;6.80;;;2.30;;
49488;SDS011;35382;51.484;11.476;2023-07-30T08:43:29;3.23;;;1.90;;
49488;SDS011;35382;51.484;11.476;2023-07-30T08:45:55;3.83;;;2.10;;
49488;SDS011;35382;51.484;11.476;2023-07-30T08:48:21;5.80;;;2.60;;
49488;SDS011;35382;51.484;11.476;2023-07-30T08:50:48;5.80;;;2.10;;
49488;SDS011;35382;51.484;11.476;2023-07-30T08:53:14;5.85;;;2.25;;
49488;SDS011;35382;51.484;11.476;2023-07-30T08:55:39;5.47;;;2.20;;
49488;SDS011;35382;51.484;11.476;2023-07-30T08:58:05;5.27;;;2.20;;
49488;SDS011;35382;51.484;11.476;2023-07-30T09:00:34;7.43;;;2.25;;
49488;SDS011;35382;51.484;11.476;2023-07-30T09:03:02;4.68;;;1.90;;
49488;SDS011;35382;51.484;11.476;2023-07-30T09:05:29;3.03;;;1.98;;
49488;SDS011;35382;51.484;11.476;2023-07-30T09:07:55;3.87;;;2.00;;
49488;SDS011;35382;51.484;11.476;2023-07-30T09:10:21;5.03;;;2.05;;
49488;SDS011;35382;51.484;11.476;2023-07-30T09:12:51;5.40;;;2.33;;
49488;SDS011;35382;51.484;11.476;2023-07-30T09:17:55;4.63;;;2.40;;
49488;SDS011;35382;51.484;11.476;2023-07-30T09:20:21;5.30;;;2.00;;
49488;SDS011;35382;51.484;11.476;2023-07-30T09:22:46;4.10;;;2.10;;
49488;SDS011;35382;51.484;11.476;2023-07-30T09:25:12;3.80;;;2.00;;
49488;SDS011;35382;51.484;11.476;2023-07-30T09:27:37;4.33;;;2.00;;
49488;SDS011;35382;51.484;11.476;2023-07-30T09:30:03;3.30;;;2.07;;
49488;SDS011;35382;51.484;11.476;2023-07-30T09:32:29;3.67;;;2.03;;
49488;SDS011;35382;51.484;11.476;2023-07-30T09:35:06;3.92;;;1.85;;
49488;SDS011;35382;51.484;11.476;2023-07-30T09:37:36;4.47;;;1.70;;
49488;SDS011;35382;51.484;11.476;2023-07-30T09:40:04;4.10;;;1.92;;
49488;SDS011;35382;51.484;11.476;2023-07-30T09:42:30;3.63;;;1.90;;
49488;SDS011;35382;51.484;11.476;2023-07-30T09:44:58;5.20;;;2.13;;
49488;SDS011;35382;51.484;11.476;2023-07-30T09:47:25;3.53;;;1.92;;
49488;SDS011;35382;51.484;11.476;2023-07-30T09:49:51;4.30;;;1.80;;
49488;SDS011;35382;51.484;11.476;2023-07-30T09:52:18;6.63;;;1.90;;
49488;SDS011;35382;51.484;11.476;2023-07-30T09:54:44;2.85;;;1.58;;
49488;SDS011;35382;51.484;11.476;2023-07-30T09:57:10;4.28;;;1.92;;
49488;SDS011;35382;51.484;11.476;2023-07-30T09:59:35;4.53;;;1.73;;
49488;SDS011;35382;51.484;11.476;2023-07-30T10:02:01;3.63;;;1.57;;
49488;SDS011;35382;51.484;11.476;2023-07-30T10:04:26;2.60;;;1.53;;
49488;SDS011;35382;51.484;11.476;2023-07-30T10:07:03;3.08;;;1.60;;
49488;SDS011;35382;51.484;11.476;2023-07-30T10:09:32;4.05;;;1.60;;
49488;SDS011;35382;51.484;11.476;2023-07-30T10:12:00;3.17;;;1.45;;
49488;SDS011;35382;51.484;11.476;2023-07-30T10:14:27;2.72;;;1.40;;
49488;SDS011;35382;51.484;11.476;2023-07-30T10:16:53;2.47;;;1.30;;
49488;SDS011;35382;51.484;11.476;2023-07-30T10:19:27;4.72;;;1.52;;
49488;SDS011;35382;51.484;11.476;2023-07-30T10:22:39;2.75;;;1.35;;
49488;SDS011;35382;51.484;11.476;2023-07-30T10:24:43;2.95;;;1.48;;
49488;SDS011;35382;51.484;11.476;2023-07-30T10:27:25;5.28;;;1.50;;
49488;SDS011;35382;51.484;11.476;2023-07-30T10:30:29;3.08;;;1.60;;
49488;SDS011;35382;51.484;11.476;2023-07-30T10:35:43;3.10;;;1.42;;
49488;SDS011;35382;51.484;11.476;2023-07-30T10:38:28;3.10;;;1.27;;
49488;SDS011;35382;51.484;11.476;2023-07-30T10:43:37;4.28;;;1.58;;
49488;SDS011;35382;51.484;11.476;2023-07-30T10:46:11;2.67;;;1.38;;
49488;SDS011;35382;51.484;11.476;2023-07-30T10:48:38;3.03;;;1.20;;
49488;SDS011;35382;51.484;11.476;2023-07-30T10:51:11;5.88;;;1.70;;
49488;SDS011;35382;51.484;11.476;2023-07-30T10:53:41;3.15;;;1.50;;
49488;SDS011;35382;51.484;11.476;2023-07-30T10:56:16;2.90;;;1.23;;
49488;SDS011;35382;51.484;11.476;2023-07-30T10:58:43;4.28;;;1.60;;
49488;SDS011;35382;51.484;11.476;2023-07-30T11:01:15;4.88;;;1.75;;
49488;SDS011;35382;51.484;11.476;2023-07-30T11:03:40;4.47;;;1.70;;
49488;SDS011;35382;51.484;11.476;2023-07-30T11:06:06;3.13;;;1.50;;
49488;SDS011;35382;51.484;11.476;2023-07-30T11:08:32;2.93;;;1.60;;
49488;SDS011;35382;51.484;11.476;2023-07-30T11:10:58;5.10;;;2.17;;
49488;SDS011;35382;51.484;11.476;2023-07-30T11:13:23;4.40;;;1.77;;
49488;SDS011;35382;51.484;11.476;2023-07-30T11:15:49;2.77;;;1.80;;
49488;SDS011;35382;51.484;11.476;2023-07-30T11:18:14;2.93;;;1.60;;
49488;SDS011;35382;51.484;11.476;2023-07-30T11:20:39;3.93;;;1.70;;
49488;SDS011;35382;51.484;11.476;2023-07-30T11:23:21;3.30;;;1.83;;
49488;SDS011;35382;51.484;11.476;2023-07-30T11:25:48;4.47;;;1.98;;
49488;SDS011;35382;51.484;11.476;2023-07-30T11:28:28;3.25;;;1.92;;
49488;SDS011;35382;51.484;11.476;2023-07-30T11:31:02;4.03;;;2.13;;
49488;SDS011;35382;51.484;11.476;2023-07-30T11:33:32;3.13;;;2.05;;
49488;SDS011;35382;51.484;11.476;2023-07-30T11:36:06;4.40;;;2.08;;
49488;SDS011;35382;51.484;11.476;2023-07-30T11:38:34;7.38;;;2.50;;
49488;SDS011;35382;51.484;11.476;2023-07-30T11:41:00;4.27;;;2.53;;
49488;SDS011;35382;51.484;11.476;2023-07-30T11:43:26;4.18;;;2.45;;
49488;SDS011;35382;51.484;11.476;2023-07-30T11:46:08;5.93;;;2.30;;
49488;SDS011;35382;51.484;11.476;2023-07-30T11:48:35;6.40;;;2.45;;
49488;SDS011;35382;51.484;11.476;2023-07-30T11:51:01;4.50;;;2.40;;
49488;SDS011;35382;51.484;11.476;2023-07-30T11:53:49;7.17;;;3.57;;
49488;SDS011;35382;51.484;11.476;2023-07-30T11:56:28;6.60;;;3.72;;
49488;SDS011;35382;51.484;11.476;2023-07-30T11:58:56;6.38;;;3.75;;
49488;SDS011;35382;51.484;11.476;2023-07-30T12:01:23;4.30;;;3.28;;
49488;SDS011;35382;51.484;11.476;2023-07-30T12:03:55;7.10;;;4.03;;
49488;SDS011;35382;51.484;11.476;2023-07-30T12:06:21;7.95;;;4.88;;
49488;SDS011;35382;51.484;11.476;2023-07-30T12:08:48;6.60;;;4.33;;
49488;SDS011;35382;51.484;11.476;2023-07-30T12:11:14;5.57;;;4.15;;
49488;SDS011;35382;51.484;11.476;2023-07-30T12:13:46;6.90;;;4.50;;
49488;SDS011;35382;51.484;11.476;2023-07-30T12:16:12;6.18;;;4.25;;
49488;SDS011;35382;51.484;11.476;2023-07-30T12:18:38;7.80;;;4.63;;
49488;SDS011;35382;51.484;11.476;2023-07-30T12:21:04;8.00;;;4.40;;
49488;SDS011;35382;51.484;11.476;2023-07-30T12:23:30;6.10;;;4.03;;
49488;SDS011;35382;51.484;11.476;2023-07-30T12:25:56;7.73;;;4.50;;
49488;SDS011;35382;51.484;11.476;2023-07-30T12:28:21;6.97;;;4.33;;
49488;SDS011;35382;51.484;11.476;2023-07-30T12:30:49;4.88;;;3.55;;
49488;SDS011;35382;51.484;11.476;2023-07-30T12:33:14;4.83;;;2.93;;
49488;SDS011;35382;51.484;11.476;2023-07-30T12:35:40;5.57;;;3.53;;
49488;SDS011;35382;51.484;11.476;2023-07-30T12:38:05;4.50;;;2.77;;
49488;SDS011;35382;51.484;11.476;2023-07-30T12:40:31;5.03;;;2.75;;
49488;SDS011;35382;51.484;11.476;2023-07-30T12:42:57;4.10;;;2.30;;
49488;SDS011;35382;51.484;11.476;2023-07-30T12:45:22;3.50;;;2.27;;
49488;SDS011;35382;51.484;11.476;2023-07-30T12:47:48;3.75;;;2.03;;
49488;SDS011;35382;51.484;11.476;2023-07-30T12:50:14;4.07;;;2.10;;
49488;SDS011;35382;51.484;11.476;2023-07-30T12:52:39;3.93;;;2.00;;
49488;SDS011;35382;51.484;11.476;2023-07-30T12:55:05;4.87;;;1.90;;
49488;SDS011;35382;51.484;11.476;2023-07-30T12:57:30;4.63;;;2.00;;
49488;SDS011;35382;51.484;11.476;2023-07-30T12:59:56;3.73;;;2.20;;
49488;SDS011;35382;51.484;11.476;2023-07-30T13:02:21;3.73;;;2.07;;
49488;SDS011;35382;51.484;11.476;2023-07-30T13:04:47;3.50;;;2.13;;
49488;SDS011;35382;51.484;11.476;2023-07-30T13:07:12;5.33;;;2.40;;
49488;SDS011;35382;51.484;11.476;2023-07-30T13:09:38;4.17;;;2.50;;
49488;SDS011;35382;51.484;11.476;2023-07-30T13:12:03;3.63;;;2.40;;
49488;SDS011;35382;51.484;11.476;2023-07-30T13:14:29;4.73;;;2.80;;
49488;SDS011;35382;51.484;11.476;2023-07-30T13:16:54;7.17;;;2.70;;
49488;SDS011;35382;51.484;11.476;2023-07-30T13:19:20;7.07;;;3.00;;
49488;SDS011;35382;51.484;11.476;2023-07-30T13:21:45;3.97;;;2.30;;
49488;SDS011;35382;51.484;11.476;2023-07-30T13:24:10;4.57;;;2.40;;
49488;SDS011;35382;51.484;11.476;2023-07-30T13:26:40;6.10;;;2.40;;
49488;SDS011;35382;51.484;11.476;2023-07-30T13:29:05;4.50;;;2.10;;
49488;SDS011;35382;51.484;11.476;2023-07-30T13:31:31;2.97;;;1.90;;
49488;SDS011;35382;51.484;11.476;2023-07-30T13:33:56;3.40;;;2.00;;
49488;SDS011;35382;51.484;11.476;2023-07-30T13:36:22;3.60;;;1.70;;
49488;SDS011;35382;51.484;11.476;2023-07-30T13:38:47;3.40;;;1.80;;
49488;SDS011;35382;51.484;11.476;2023-07-30T13:41:13;4.70;;;1.73;;
49488;SDS011;35382;51.484;11.476;2023-07-30T13:43:38;3.83;;;2.17;;
49488;SDS011;35382;51.484;11.476;2023-07-30T13:46:04;3.37;;;1.80;;
49488;SDS011;35382;51.484;11.476;2023-07-30T13:48:29;5.33;;;1.63;;
49488;SDS011;35382;51.484;11.476;2023-07-30T13:50:54;2.67;;;1.33;;
49488;SDS011;35382;51.484;11.476;2023-07-30T13:53:20;7.37;;;1.40;;
49488;SDS011;35382;51.484;11.476;2023-07-30T13:55:45;2.67;;;1.30;;
49488;SDS011;35382;51.484;11.476;2023-07-30T13:58:11;4.10;;;1.13;;
49488;SDS011;35382;51.484;11.476;2023-07-30T14:00:36;1.17;;;1.03;;
49488;SDS011;35382;51.484;11.476;2023-07-30T14:03:05;2.22;;;1.10;;
49488;SDS011;35382;51.484;11.476;2023-07-30T14:05:30;1.73;;;1.10;;
49488;SDS011;35382;51.484;11.476;2023-07-30T14:07:55;1.47;;;0.90;;
49488;SDS011;35382;51.484;11.476;2023-07-30T14:10:21;2.20;;;0.90;;
49488;SDS011;35382;51.484;11.476;2023-07-30T14:12:46;1.20;;;0.90;;
49488;SDS011;35382;51.484;11.476;2023-07-30T14:15:12;2.53;;;1.20;;
49488;SDS011;35382;51.484;11.476;2023-07-30T14:17:37;1.73;;;0.93;;
49488;SDS011;35382;51.484;11.476;2023-07-30T14:20:03;1.67;;;1.00;;
49488;SDS011;35382;51.484;11.476;2023-07-30T14:22:28;2.30;;;1.17;;
49488;SDS011;35382;51.484;11.476;2023-07-30T14:24:54;2.00;;;0.93;;
49488;SDS011;35382;51.484;11.476;2023-07-30T14:27:19;4.57;;;1.40;;
49488;SDS011;35382;51.484;11.476;2023-07-30T14:29:44;2.30;;;1.10;;
49488;SDS011;35382;51.484;11.476;2023-07-30T14:32:10;3.47;;;1.30;;
49488;SDS011;35382;51.484;11.476;2023-07-30T14:34:35;3.60;;;1.37;;
49488;SDS011;35382;51.484;11.476;2023-07-30T14:37:01;5.53;;;1.60;;
49488;SDS011;35382;51.484;11.476;2023-07-30T14:39:26;3.73;;;1.63;;
49488;SDS011;35382;51.484;11.476;2023-07-30T14:41:52;2.87;;;1.47;;